Bei Facebook empfehlenBei Twitter postenGoogle plusPinterest

Das Wetter im Erzgebirge am 20.08.2016

Wetter und Klima am 20.08.2016 Holzhau im Erzgebirge (630m ü.NN)
Letzte gemessene Temperatur und Uhrzeit der Messung23:45:00 Uhr15.40 °C
Temperatur (Maximum / Höchstwert) und Uhrzeit der Messung15:45:00 Uhr25.60 °C
Temperatur (Minimum / Tiefstwert) und Uhrzeit der Messung01:30:009.80 °C
Errechneter Absolutwert der Temperaturschwankungen zwischen Tmin und Tmax des Tages15.80 K
Errechnete Tagesmitteltemperatur17.40625 °C
Gesamt - Niederschlag des Tages (in flüssiger Form)4.66 Liter / m²
Luftdruck (Maximum / Höchstwert) und Zeitpunkt der Messung23:45:00 Uhr1013.70 hPa
Luftdruck (Minimum / Tiefstwert) und Zeitpunkt der Messung04:15:00 Uhr1011.00 hPa
Errechneter Absolutwert der Luftdruckschwankungen des Tages2.70 hPa
Höchste gemessene Windgeschwindigkeit und Uhrzeit der Messung23:45:00 Uhr0.00 km/h
Errechnete Windhäufigkeit in Relation zu den Messwerten des Tages0.00000 %
Niedrigste Windkühle (Windchill) und Zeitpunkt der Messung01:30:00 Uhr9.80 °C
Taupunkt (Maximum / Höchstwert) und Uhrzeit der Messung11:30:00 Uhr18.90 °C
Taupunkt (Minimum / Tiefstwert) und Uhrzeit der Messung00:30:006.60 °C
Anzahl der automatisch eingelesenen Messwerte 96

Detaillierte Wetter- und Klima- Messwerte für den 20.08.2016 in Holzhau im Erzgebirge (630m ü.NN)
ZeitTemperaturLuftdruckRel. LuftfeuchteWindWindrichtungWindchillTaupunktNiederschlag l/m²
23:45:0015.40 °C1013.70 hPa90.00 %13.80 °C4.66
23:30:0015.40 °C1013.70 hPa90.00 %13.80 °C4.15
23:15:0015.40 °C1013.70 hPa90.00 %13.80 °C4.15
23:00:0015.40 °C1013.40 hPa90.00 %13.80 °C4.15
22:45:0015.50 °C1013.30 hPa89.00 %13.70 °C4.15
22:30:0015.60 °C1013.00 hPa89.00 %13.80 °C4.15
22:15:0015.80 °C1013.00 hPa88.00 %13.80 °C4.15
22:00:0015.90 °C1013.10 hPa88.00 %13.90 °C4.15
21:45:0016.10 °C1013.10 hPa87.00 %13.90 °C4.15
21:30:0016.30 °C1013.20 hPa86.00 %14.00 °C4.15
21:15:0016.50 °C1013.10 hPa85.00 %14.00 °C4.15
21:00:0016.90 °C1013.20 hPa84.00 %14.20 °C4.15
20:45:0017.30 °C1013.20 hPa83.00 %14.40 °C3.63
20:30:0017.70 °C1013.00 hPa81.00 %14.40 °C3.63
20:15:0018.30 °C1012.70 hPa79.00 %14.60 °C3.63
20:00:0019.60 °C1012.80 hPa75.00 %15.00 °C3.63
19:45:0020.30 °C1012.70 hPa74.00 %15.50 °C3.63
19:30:0020.90 °C1012.60 hPa73.00 %15.90 °C3.63
19:15:0021.30 °C1012.50 hPa71.00 %15.80 °C3.63
19:00:0021.90 °C1012.50 hPa69.00 %16.00 °C3.63
18:45:0022.50 °C1012.20 hPa67.00 %16.10 °C3.63
18:30:0023.10 °C1012.20 hPa65.00 %16.20 °C3.63
18:15:0023.80 °C1012.40 hPa62.00 %16.10 °C3.63
18:00:0024.30 °C1012.30 hPa60.00 %16.00 °C3.63
17:45:0024.90 °C1012.20 hPa58.00 %16.10 °C3.63
17:30:0025.50 °C1012.20 hPa59.00 %16.90 °C3.63
17:15:0025.40 °C1012.10 hPa59.00 %16.80 °C3.63
17:00:0025.30 °C1011.90 hPa60.00 %17.00 °C3.63
16:45:0024.80 °C1012.20 hPa60.00 %16.50 °C3.63
16:30:0025.30 °C1012.20 hPa58.00 %16.40 °C3.63
16:15:0025.40 °C1012.10 hPa59.00 %16.80 °C3.63
16:00:0025.30 °C1012.30 hPa59.00 %16.70 °C3.63
15:45:0025.60 °C1012.40 hPa59.00 %17.00 °C3.63
15:30:0025.50 °C1012.30 hPa59.00 %16.90 °C3.63
15:15:0024.60 °C1012.50 hPa59.00 %16.10 °C3.63
15:00:0024.80 °C1012.30 hPa60.00 %16.50 °C3.63
14:45:0024.60 °C1012.50 hPa60.00 %16.30 °C3.63
14:30:0024.90 °C1012.40 hPa60.00 %16.60 °C3.63
14:15:0024.50 °C1012.50 hPa59.00 %16.00 °C3.63
14:00:0023.90 °C1012.30 hPa60.00 %15.70 °C3.63
13:45:0023.90 °C1012.20 hPa61.00 %15.90 °C3.63
13:30:0023.90 °C1012.30 hPa64.00 %16.70 °C3.63
13:15:0023.90 °C1012.20 hPa66.00 %17.20 °C3.63
13:00:0023.90 °C1012.20 hPa67.00 %17.40 °C3.63
12:45:0023.90 °C1012.10 hPa67.00 %17.40 °C3.63
12:30:0023.60 °C1012.20 hPa71.00 %18.00 °C3.63
12:15:0022.90 °C1012.10 hPa72.00 %17.60 °C3.63
12:00:0022.70 °C1012.30 hPa73.00 %17.60 °C3.63
11:45:0022.90 °C1012.10 hPa77.00 %18.70 °C3.63
11:30:0022.10 °C1012.10 hPa82.00 %18.90 °C3.63
11:15:0020.90 °C1012.00 hPa83.00 %17.90 °C3.63
11:00:0020.30 °C1012.20 hPa87.00 %18.10 °C3.63
10:45:0019.50 °C1012.10 hPa90.00 %17.80 °C3.63
10:30:0019.20 °C1012.20 hPa90.00 %17.50 °C3.63
10:15:0019.20 °C1012.10 hPa91.00 %17.70 °C3.63
10:00:0018.90 °C1011.90 hPa92.00 %17.60 °C3.63
09:45:0017.90 °C1011.70 hPa92.00 %16.60 °C3.63
09:30:0016.40 °C1011.70 hPa93.00 %15.30 °C3.63
09:15:0015.20 °C1011.80 hPa92.00 %13.90 °C3.63
09:00:0014.40 °C1011.70 hPa92.00 %13.10 °C3.63
08:45:0013.90 °C1012.10 hPa91.00 %12.50 °C3.63
08:30:0013.90 °C1012.40 hPa91.00 %12.50 °C3.63
08:15:0013.80 °C1012.40 hPa91.00 %12.40 °C3.63
08:00:0013.30 °C1012.30 hPa90.00 %11.70 °C2.07
07:45:0012.90 °C1011.70 hPa89.00 %11.10 °C0.52
07:30:0012.50 °C1011.60 hPa89.00 %10.70 °C0.52
07:15:0012.40 °C1011.60 hPa88.00 %10.50 °C0.52
07:00:0012.20 °C1011.50 hPa87.00 %10.10 °C0.52
06:45:0012.10 °C1011.50 hPa87.00 %10.00 °C0.52
06:30:0011.60 °C1011.40 hPa86.00 %9.30 °C0.52
06:15:0011.60 °C1011.30 hPa85.00 %9.20 °C0.52
06:00:0011.90 °C1011.60 hPa84.00 %9.30 °C 
05:45:0012.50 °C1011.30 hPa83.00 %9.70 °C 
05:30:0012.50 °C1011.20 hPa83.00 %9.70 °C 
05:15:0012.40 °C1011.30 hPa83.00 %9.60 °C 
05:00:0012.00 °C1011.20 hPa82.00 %9.00 °C 
04:45:0011.80 °C1011.20 hPa82.00 %8.80 °C 
04:30:0011.80 °C1011.10 hPa81.00 %8.60 °C 
04:15:0011.80 °C1011.00 hPa81.00 %8.60 °C 
04:00:0011.80 °C1011.20 hPa81.00 %8.60 °C 
03:45:0011.60 °C1011.00 hPa81.00 %8.50 °C 
03:30:0011.30 °C1011.20 hPa82.00 %8.30 °C 
03:15:0010.70 °C1011.20 hPa82.00 %7.80 °C 
03:00:0010.40 °C1011.20 hPa82.00 %7.50 °C 
02:45:0010.40 °C1011.10 hPa82.00 %7.50 °C 
02:30:0010.40 °C1011.20 hPa82.00 %7.50 °C 
02:15:0010.30 °C1011.40 hPa82.00 %7.40 °C 
02:00:0010.30 °C1011.20 hPa82.00 %7.40 °C 
01:45:009.90 °C1011.30 hPa83.00 %7.20 °C 
01:30:009.80 °C1011.40 hPa82.00 %6.90 °C 
01:15:009.90 °C1011.60 hPa82.00 %7.00 °C 
01:00:009.90 °C1011.50 hPa82.00 %7.00 °C 
00:45:009.80 °C1011.60 hPa81.00 %6.70 °C 
00:30:009.90 °C1011.40 hPa80.00 %6.60 °C 
00:15:0010.20 °C1011.50 hPa80.00 %6.90 °C 
00:00:0010.40 °C1011.30 hPa79.00 %6.90 °C 

Permanenter Link zu dieser Seite: Wetter im Erzgebirge am 20.08.2016
Performance-Info: Die Erstellung der Seite / Statistik(en) / Tabelle(n) erforderte 5 Datenbankserver-Abfrage(n) und dauerte 123 Millisekunden. (Dieser Messwert ist von der Gesamt-Auslastung des Servers abhängig.)
Erzgebirge - Wetter | Erzgebirge - Wetter (Mobilgeräte) | Komplette Klimadatenbank